createdAt,value
2022-09-21T00:01:21.631Z,59.58
2022-09-21T00:03:51.761Z,58.95
2022-09-21T00:06:19.723Z,59.24
2022-09-21T00:08:47.350Z,59.11
2022-09-21T00:11:21.691Z,59.08
2022-09-21T00:13:51.947Z,59.08
2022-09-21T00:16:18.502Z,58.97
2022-09-21T00:18:45.058Z,58.97
2022-09-21T00:21:14.164Z,59.12
2022-09-21T00:23:42.016Z,59.08
2022-09-21T00:26:14.904Z,59.81
2022-09-21T00:28:42.296Z,59.05
2022-09-21T00:31:12.393Z,59.48
2022-09-21T00:33:40.957Z,59.43
2022-09-21T00:36:10.751Z,59.65
2022-09-21T00:38:38.088Z,59.23
2022-09-21T00:41:06.798Z,59.54
2022-09-21T00:44:28.596Z,60.17
2022-09-21T00:47:00.972Z,59.42
2022-09-21T00:49:28.378Z,59.41
2022-09-21T00:51:57.086Z,59.59
2022-09-21T00:54:29.821Z,60.03
2022-09-21T00:56:59.914Z,59.34
2022-09-21T00:59:30.079Z,59.42
2022-09-21T01:01:58.555Z,59.60
2022-09-21T01:04:26.815Z,59.47
2022-09-21T01:06:54.025Z,59.38
2022-09-21T01:09:20.800Z,59.43
2022-09-21T01:12:03.055Z,60.00
2022-09-21T01:14:44.441Z,59.46
2022-09-21T01:17:38.244Z,59.81
2022-09-21T01:20:42.628Z,59.74
2022-09-21T01:23:21.412Z,59.87
2022-09-21T01:26:01.478Z,60.09
2022-09-21T01:28:46.745Z,60.36
2022-09-21T01:31:21.766Z,59.83
2022-09-21T01:33:54.307Z,60.19
2022-09-21T01:36:25.810Z,59.85
2022-09-21T01:38:58.479Z,60.00
2022-09-21T01:41:28.787Z,59.75
2022-09-21T01:44:02.539Z,59.63
2022-09-21T01:46:32.236Z,59.53
2022-09-21T01:49:05.045Z,59.64
2022-09-21T01:51:34.615Z,59.60
2022-09-21T01:54:24.578Z,60.71
2022-09-21T01:57:01.728Z,60.35
2022-09-21T01:59:38.161Z,60.47
2022-09-21T02:02:36.082Z,60.71
2022-09-21T02:05:04.772Z,60.03
2022-09-21T02:07:33.695Z,60.24
2022-09-21T02:10:03.083Z,60.33
2022-09-21T02:12:31.535Z,60.21
2022-09-21T02:14:58.279Z,60.34
2022-09-21T02:17:50.752Z,61.26
2022-09-21T02:20:30.320Z,60.29
2022-09-21T02:23:06.622Z,60.66
2022-09-21T02:25:45.867Z,61.03
2022-09-21T02:28:18.465Z,60.87
2022-09-21T02:30:55.795Z,60.92
2022-09-21T02:33:41.464Z,61.30
2022-09-21T02:36:33.812Z,61.11
2022-09-21T02:39:10.133Z,61.05
2022-09-21T02:41:57.511Z,60.85
2022-09-21T02:44:32.629Z,60.93
2022-09-21T02:47:13.711Z,61.13
2022-09-21T02:49:45.901Z,60.66
2022-09-21T02:52:15.859Z,60.40
2022-09-21T02:54:47.251Z,60.49
2022-09-21T02:57:17.200Z,60.63
2022-09-21T02:59:44.118Z,60.54
2022-09-21T03:02:12.557Z,60.61
2022-09-21T03:04:41.330Z,60.69
2022-09-21T03:07:09.093Z,60.29
2022-09-21T03:09:36.265Z,60.41
2022-09-21T03:12:02.867Z,60.36
2022-09-21T03:14:29.652Z,60.31
2022-09-21T03:16:56.131Z,60.33
2022-09-21T03:19:22.647Z,60.44
2022-09-21T03:21:49.131Z,60.41
2022-09-21T03:24:35.617Z,60.37
2022-09-21T03:27:02.099Z,60.52
2022-09-21T03:29:28.657Z,60.31
2022-09-21T03:31:56.095Z,60.36
2022-09-21T03:34:22.993Z,60.32
2022-09-21T03:36:49.507Z,60.26
2022-09-21T03:39:15.988Z,60.06
2022-09-21T03:41:42.472Z,60.04
2022-09-21T03:44:08.986Z,59.94
2022-09-21T03:46:35.562Z,59.80
2022-09-21T03:49:03.101Z,59.89
2022-09-21T03:51:31.566Z,60.06
2022-09-21T03:53:58.217Z,60.29
2022-09-21T03:56:24.747Z,60.43
2022-09-21T03:58:51.294Z,60.41
2022-09-21T04:01:17.851Z,60.37
2022-09-21T04:03:44.338Z,60.52
2022-09-21T04:06:12.148Z,61.02
2022-09-21T04:08:39.626Z,60.94
2022-09-21T04:11:17.798Z,61.96
2022-09-21T04:13:45.382Z,61.22
2022-09-21T04:16:11.980Z,61.16
2022-09-21T04:18:38.710Z,60.97
2022-09-21T04:21:06.226Z,61.02
2022-09-21T04:23:32.998Z,61.00
2022-09-21T04:26:00.098Z,61.10
2022-09-21T04:28:26.710Z,61.02
2022-09-21T04:30:55.804Z,61.15
2022-09-21T04:33:23.916Z,60.86
2022-09-21T04:35:56.928Z,61.53
2022-09-21T04:38:23.417Z,61.15
2022-09-21T04:40:59.560Z,61.06
2022-09-21T04:43:26.180Z,60.36
2022-09-21T04:45:52.747Z,60.36
2022-09-21T04:48:19.285Z,60.33
2022-09-21T04:50:49.905Z,60.80
2022-09-21T04:53:16.980Z,60.66
2022-09-21T04:55:45.444Z,60.88
2022-09-21T04:58:11.912Z,60.83
2022-09-21T05:00:38.470Z,61.00
2022-09-21T05:03:04.941Z,60.98
2022-09-21T05:05:32.071Z,61.04
2022-09-21T05:07:58.612Z,60.91
2022-09-21T05:10:25.232Z,60.75
2022-09-21T05:12:52.658Z,60.93
2022-09-21T05:15:19.404Z,60.88
2022-09-21T05:17:46.746Z,60.90
2022-09-21T05:20:13.368Z,61.06
2022-09-21T05:22:39.942Z,61.16
2022-09-21T05:25:07.338Z,61.62
2022-09-21T05:27:33.820Z,61.37
2022-09-21T05:30:00.591Z,61.54
2022-09-21T05:32:31.352Z,61.71
2022-09-21T05:35:15.074Z,62.42
2022-09-21T05:37:53.797Z,62.38
2022-09-21T05:40:20.867Z,61.99
2022-09-21T05:42:47.720Z,62.12
2022-09-21T05:45:16.461Z,62.25
2022-09-21T05:48:11.149Z,62.70
2022-09-21T05:50:56.305Z,62.62
2022-09-21T05:53:44.941Z,62.63
2022-09-21T05:56:22.522Z,62.67
2022-09-21T05:59:16.914Z,62.84
2022-09-21T06:02:03.519Z,63.15
2022-09-21T06:04:30.430Z,62.19
2022-09-21T06:06:56.921Z,62.61
2022-09-21T06:09:25.885Z,62.84
2022-09-21T06:11:52.662Z,62.74
2022-09-21T06:14:24.684Z,62.78
2022-09-21T06:16:52.480Z,62.97
2022-09-21T06:19:19.143Z,62.88
2022-09-21T06:21:45.733Z,63.04
2022-09-21T06:24:12.241Z,63.02
2022-09-21T06:26:38.750Z,63.20
2022-09-21T06:29:05.274Z,63.27
2022-09-21T06:31:31.802Z,63.19
2022-09-21T06:33:58.284Z,63.24
2022-09-21T06:36:24.792Z,63.37
2022-09-21T06:38:51.300Z,63.20
2022-09-21T06:41:21.419Z,62.99
2022-09-21T06:43:48.256Z,63.35
2022-09-21T06:46:15.123Z,63.54
2022-09-21T06:48:41.723Z,63.31
2022-09-21T06:51:08.284Z,63.30
2022-09-21T06:53:35.264Z,63.48
2022-09-21T06:56:08.110Z,63.87
2022-09-21T06:58:35.179Z,63.32
2022-09-21T07:01:12.643Z,64.01
2022-09-21T07:03:40.489Z,63.27
2022-09-21T07:06:08.739Z,63.57
2022-09-21T07:11:24.056Z,63.02
2022-09-21T07:13:50.867Z,63.19
2022-09-21T07:16:17.409Z,63.07
2022-09-21T07:18:44.306Z,63.12
2022-09-21T07:21:11.848Z,63.17
2022-09-21T07:23:38.469Z,63.02
2022-09-21T07:26:08.203Z,63.02
2022-09-21T07:28:35.663Z,62.91
2022-09-21T07:31:16.848Z,63.50
2022-09-21T07:33:46.571Z,62.94
2022-09-21T07:36:13.338Z,62.87
2022-09-21T07:38:43.615Z,62.87
2022-09-21T07:41:13.092Z,62.90
2022-09-21T07:43:40.473Z,62.78
2022-09-21T07:46:09.408Z,62.77
2022-09-21T07:48:36.201Z,62.79
2022-09-21T07:51:06.175Z,62.66
2022-09-21T07:53:37.218Z,63.09
2022-09-21T07:56:05.642Z,62.81
2022-09-21T07:58:51.273Z,62.51
2022-09-21T08:01:18.058Z,62.54
2022-09-21T08:03:44.729Z,62.54
2022-09-21T08:06:11.292Z,62.30
2022-09-21T08:08:37.824Z,62.39
2022-09-21T08:11:07.719Z,62.84
2022-09-21T08:13:34.897Z,62.57
2022-09-21T08:16:02.578Z,62.41
2022-09-21T08:18:30.028Z,62.44
2022-09-21T08:21:00.825Z,62.72
2022-09-21T08:23:29.550Z,62.10
2022-09-21T08:26:03.463Z,62.35
2022-09-21T08:28:31.271Z,62.06
2022-09-21T08:31:01.857Z,61.92
2022-09-21T08:33:29.812Z,61.70
2022-09-21T08:35:59.885Z,61.87
2022-09-21T08:38:27.645Z,61.76
2022-09-21T08:40:54.299Z,61.42
2022-09-21T08:43:36.836Z,60.40
2022-09-21T08:46:11.017Z,60.56
2022-09-21T08:48:46.940Z,60.64
2022-09-21T08:51:22.134Z,60.64
2022-09-21T08:53:52.669Z,60.68
2022-09-21T08:56:22.120Z,60.85
2022-09-21T08:58:48.817Z,60.66
2022-09-21T09:01:27.699Z,60.79
2022-09-21T09:03:56.880Z,60.79
2022-09-21T09:06:28.146Z,60.71
2022-09-21T09:09:23.872Z,60.37
2022-09-21T09:12:08.598Z,60.37
2022-09-21T09:14:56.725Z,60.13
2022-09-21T09:17:33.509Z,60.37
2022-09-21T09:20:12.413Z,60.01
2022-09-21T09:22:50.277Z,59.76
2022-09-21T09:25:21.120Z,60.04
2022-09-21T09:27:53.365Z,59.97
2022-09-21T09:30:24.779Z,59.53
2022-09-21T09:33:08.611Z,59.32
2022-09-21T09:35:40.514Z,59.28
2022-09-21T09:38:28.225Z,58.88
2022-09-21T09:41:16.109Z,58.73
2022-09-21T09:43:55.944Z,58.57
2022-09-21T09:46:32.747Z,58.55
2022-09-21T09:49:12.275Z,57.54
2022-09-21T09:51:40.589Z,57.97
2022-09-21T09:54:14.486Z,57.01
2022-09-21T09:56:41.751Z,58.05
2022-09-21T09:59:18.426Z,57.38
2022-09-21T10:01:47.476Z,58.45
2022-09-21T10:04:17.617Z,58.69
2022-09-21T10:06:46.656Z,58.21
2022-09-21T10:09:33.898Z,57.03
2022-09-21T10:12:09.543Z,58.02
2022-09-21T10:14:36.896Z,58.41
2022-09-21T10:17:08.291Z,60.13
2022-09-21T10:19:35.311Z,59.29
2022-09-21T10:22:04.902Z,58.27
2022-09-21T10:24:35.853Z,57.58
2022-09-21T10:27:15.835Z,56.91
2022-09-21T10:29:46.202Z,56.52
2022-09-21T10:32:14.946Z,56.49
2022-09-21T10:34:59.500Z,55.41
2022-09-21T10:37:42.670Z,55.12
2022-09-21T10:40:21.643Z,54.96
2022-09-21T10:42:50.449Z,55.10
2022-09-21T10:45:25.229Z,55.64
2022-09-21T10:48:08.584Z,54.22
2022-09-21T10:50:41.429Z,55.72
2022-09-21T10:53:10.608Z,56.31
2022-09-21T10:55:58.159Z,55.14
2022-09-21T10:58:32.396Z,56.35
2022-09-21T11:01:20.389Z,54.18
2022-09-21T11:04:08.749Z,54.75
2022-09-21T11:06:43.498Z,54.37
2022-09-21T11:09:12.715Z,56.28
2022-09-21T11:12:07.595Z,50.81
2022-09-21T11:14:37.148Z,54.95
2022-09-21T11:17:20.066Z,51.78
2022-09-21T11:19:57.343Z,55.51
2022-09-21T11:22:40.911Z,52.85
2022-09-21T11:25:25.761Z,49.12
2022-09-21T11:28:02.288Z,47.69
2022-09-21T11:30:46.521Z,44.57
2022-09-21T11:33:32.031Z,44.99
2022-09-21T11:36:18.114Z,42.62
2022-09-21T11:38:53.986Z,41.20
2022-09-21T11:41:59.312Z,43.81
2022-09-21T11:44:25.747Z,40.90
2022-09-21T11:47:17.756Z,40.38
2022-09-21T11:50:26.391Z,38.56
2022-09-21T11:52:51.290Z,38.65
2022-09-21T11:55:37.023Z,38.33
2022-09-21T11:58:29.641Z,36.82
2022-09-21T12:01:14.939Z,35.51
2022-09-21T12:04:15.045Z,37.01
2022-09-21T12:07:01.132Z,34.84
2022-09-21T12:10:04.401Z,33.28
2022-09-21T12:12:41.909Z,34.11
2022-09-21T12:15:20.043Z,31.78
2022-09-21T12:18:14.974Z,30.99
2022-09-21T12:21:12.833Z,30.05
2022-09-21T12:23:51.730Z,29.12
2022-09-21T12:26:22.376Z,29.88
2022-09-21T12:29:01.190Z,30.11
2022-09-21T12:31:42.556Z,28.50
2022-09-21T12:34:22.617Z,29.44
2022-09-21T12:37:07.508Z,29.52
2022-09-21T12:39:49.008Z,28.38
2022-09-21T12:42:27.739Z,28.56
2022-09-21T12:45:21.062Z,27.25
2022-09-21T12:47:59.314Z,26.63
2022-09-21T12:50:41.256Z,27.52
2022-09-21T12:53:18.917Z,26.09
2022-09-21T12:55:54.378Z,26.60
2022-09-21T12:58:41.252Z,25.73
2022-09-21T13:01:23.244Z,26.00
2022-09-21T13:04:03.027Z,25.49
2022-09-21T13:06:54.235Z,25.84
2022-09-21T13:09:22.406Z,25.30
2022-09-21T13:12:00.415Z,24.84
2022-09-21T13:14:34.776Z,24.63
2022-09-21T13:17:03.426Z,24.59
2022-09-21T13:19:33.550Z,23.75
2022-09-21T13:22:23.904Z,24.66
2022-09-21T13:25:15.283Z,24.67
2022-09-21T13:28:09.360Z,24.63
2022-09-21T13:30:43.263Z,22.19
2022-09-21T13:33:18.880Z,22.54
2022-09-21T13:35:48.223Z,21.72
2022-09-21T13:38:34.189Z,22.50
2022-09-21T13:41:03.930Z,22.26
2022-09-21T13:44:04.384Z,24.34
2022-09-21T13:46:34.743Z,22.44
2022-09-21T13:49:10.603Z,23.13
2022-09-21T13:51:57.342Z,23.52
2022-09-21T13:54:38.715Z,22.34
2022-09-21T13:57:23.632Z,23.03
2022-09-21T14:00:07.796Z,23.58
2022-09-21T14:02:38.415Z,22.25
2022-09-21T14:05:32.572Z,23.75
2022-09-21T14:08:03.146Z,22.68
2022-09-21T14:10:32.245Z,22.59
2022-09-21T14:13:00.868Z,22.20
2022-09-21T14:15:27.343Z,21.57
2022-09-21T14:18:36.970Z,23.37
2022-09-21T14:21:09.944Z,21.51
2022-09-21T14:23:38.139Z,21.18
2022-09-21T14:26:41.490Z,22.27
2022-09-21T14:29:34.932Z,22.21
2022-09-21T14:32:04.412Z,21.17
2022-09-21T14:34:36.985Z,20.33
2022-09-21T14:37:13.026Z,19.94
2022-09-21T14:39:44.433Z,20.02
2022-09-21T14:42:17.394Z,19.59
2022-09-21T14:44:44.671Z,20.19
2022-09-21T14:47:29.663Z,19.88
2022-09-21T14:50:15.600Z,20.70
2022-09-21T14:53:01.149Z,19.66
2022-09-21T14:55:58.540Z,20.35
2022-09-21T14:58:50.067Z,20.55
2022-09-21T15:01:43.015Z,19.53
2022-09-21T15:04:45.291Z,19.78
2022-09-21T15:07:56.153Z,19.44
2022-09-21T15:10:55.334Z,19.38
2022-09-21T15:13:53.505Z,19.35
2022-09-21T15:16:38.854Z,18.86
2022-09-21T15:19:26.240Z,19.85
2022-09-21T15:21:56.839Z,19.16
2022-09-21T15:24:34.120Z,18.91
2022-09-21T15:27:15.870Z,19.13
2022-09-21T15:29:49.244Z,18.05
2022-09-21T15:32:24.468Z,17.33
2022-09-21T15:35:15.888Z,18.92
2022-09-21T15:37:43.203Z,17.62
2022-09-21T15:40:18.041Z,17.97
2022-09-21T15:43:09.394Z,19.21
2022-09-21T15:45:59.189Z,20.00
2022-09-21T15:48:29.053Z,19.70
2022-09-21T15:51:24.718Z,21.36
2022-09-21T15:53:56.202Z,20.79
2022-09-21T15:56:26.122Z,20.99
2022-09-21T15:59:09.067Z,23.03
2022-09-21T16:01:47.614Z,23.36
2022-09-21T16:04:18.971Z,22.62
2022-09-21T16:06:57.623Z,23.90
2022-09-21T16:09:24.035Z,24.27
2022-09-21T16:11:52.208Z,24.85
2022-09-21T16:14:38.549Z,26.05
2022-09-21T16:17:14.025Z,26.38
2022-09-21T16:19:55.798Z,25.49
2022-09-21T16:22:29.606Z,26.31
2022-09-21T16:25:00.107Z,26.59
2022-09-21T16:27:32.395Z,26.76
2022-09-21T16:30:01.154Z,26.37
2022-09-21T16:32:29.951Z,26.85
2022-09-21T16:35:18.156Z,27.58
2022-09-21T16:37:44.647Z,27.95
2022-09-21T16:40:11.183Z,27.68
2022-09-21T16:42:38.462Z,28.58
2022-09-21T16:45:24.344Z,29.55
2022-09-21T16:47:53.337Z,29.67
2022-09-21T16:50:20.221Z,29.98
2022-09-21T16:52:47.031Z,29.98
2022-09-21T16:55:15.607Z,30.74
2022-09-21T16:57:46.077Z,30.51
2022-09-21T17:00:13.928Z,30.64
2022-09-21T17:02:42.793Z,31.21
2022-09-21T17:05:10.046Z,30.92
2022-09-21T17:07:36.761Z,31.33
2022-09-21T17:10:12.827Z,33.22
2022-09-21T17:12:39.471Z,33.30
2022-09-21T17:15:07.964Z,33.65
2022-09-21T17:17:34.668Z,34.06
2022-09-21T17:20:07.055Z,34.28
2022-09-21T17:22:33.550Z,34.11
2022-09-21T17:25:00.013Z,35.03
2022-09-21T17:27:29.460Z,35.18
2022-09-21T17:29:56.516Z,35.57
2022-09-21T17:32:24.760Z,36.22
2022-09-21T17:34:58.768Z,36.76
2022-09-21T17:37:25.512Z,36.11
2022-09-21T17:39:53.660Z,36.48
2022-09-21T17:42:25.205Z,36.89
2022-09-21T17:45:20.798Z,37.54
2022-09-21T17:47:50.315Z,37.47
2022-09-21T17:50:25.471Z,37.71
2022-09-21T17:53:11.312Z,37.64
2022-09-21T17:55:41.125Z,37.46
2022-09-21T17:58:19.502Z,38.83
2022-09-21T18:01:07.437Z,38.68
2022-09-21T18:03:41.197Z,38.74
2022-09-21T18:06:09.035Z,38.81
2022-09-21T18:08:37.203Z,39.20
2022-09-21T18:11:28.081Z,39.37
2022-09-21T18:14:31.115Z,40.31
2022-09-21T18:17:32.417Z,40.23
2022-09-21T18:20:10.900Z,40.09
2022-09-21T18:22:56.119Z,40.07
2022-09-21T18:25:47.765Z,40.35
2022-09-21T18:28:44.179Z,40.28
2022-09-21T18:31:41.963Z,40.61
2022-09-21T18:34:15.403Z,40.90
2022-09-21T18:36:48.499Z,41.10
2022-09-21T18:39:17.599Z,39.28
2022-09-21T18:41:55.861Z,39.84
2022-09-21T18:44:41.921Z,40.98
2022-09-21T18:47:22.372Z,41.28
2022-09-21T18:49:59.012Z,41.81
2022-09-21T18:52:35.334Z,42.05
2022-09-21T18:55:02.360Z,41.52
2022-09-21T18:57:32.457Z,41.34
2022-09-21T18:59:59.868Z,41.61
2022-09-21T19:02:27.290Z,41.79
2022-09-21T19:04:54.188Z,41.90
2022-09-21T19:07:46.991Z,42.78
2022-09-21T19:10:16.217Z,42.91
2022-09-21T19:12:52.292Z,43.25
2022-09-21T19:15:59.362Z,42.98
2022-09-21T19:18:46.431Z,43.02
2022-09-21T19:21:30.263Z,42.53
2022-09-21T19:23:56.709Z,42.54
2022-09-21T19:26:29.759Z,43.70
2022-09-21T19:29:13.024Z,41.84
2022-09-21T19:31:40.000Z,42.32
2022-09-21T19:34:19.733Z,43.33
2022-09-21T19:36:50.112Z,42.94
2022-09-21T19:39:16.912Z,43.10
2022-09-21T19:41:43.446Z,43.31
2022-09-21T19:44:18.020Z,43.50
2022-09-21T19:47:09.745Z,44.09
2022-09-21T19:50:03.779Z,44.21
2022-09-21T19:52:34.552Z,43.86
2022-09-21T19:55:20.683Z,43.76
2022-09-21T19:58:06.074Z,43.68
2022-09-21T20:00:32.798Z,43.81
2022-09-21T20:03:09.071Z,44.50
2022-09-21T20:06:11.377Z,44.60
2022-09-21T20:08:56.259Z,44.78
2022-09-21T20:11:34.846Z,44.75
2022-09-21T20:14:18.721Z,44.95
2022-09-21T20:16:53.376Z,44.96
2022-09-21T20:19:49.177Z,45.38
2022-09-21T20:22:17.873Z,44.51
2022-09-21T20:24:53.197Z,45.29
2022-09-21T20:27:28.841Z,45.46
2022-09-21T20:29:55.349Z,44.60
2022-09-21T20:32:22.818Z,44.74
2022-09-21T20:34:50.278Z,44.75
2022-09-21T20:37:20.306Z,45.00
2022-09-21T20:39:46.792Z,44.92
2022-09-21T20:42:22.086Z,46.08
2022-09-21T20:44:48.594Z,45.05
2022-09-21T20:47:15.081Z,45.17
2022-09-21T20:49:41.674Z,45.19
2022-09-21T20:52:10.367Z,45.45
2022-09-21T20:54:36.828Z,45.29
2022-09-21T20:57:03.503Z,45.22
2022-09-21T20:59:29.977Z,45.43
2022-09-21T21:01:56.597Z,45.73
2022-09-21T21:04:23.498Z,45.80
2022-09-21T21:06:50.023Z,45.74
2022-09-21T21:09:16.597Z,45.95
2022-09-21T21:11:43.291Z,45.96
2022-09-21T21:14:09.764Z,46.00
2022-09-21T21:16:37.369Z,45.83
2022-09-21T21:19:04.547Z,45.88
2022-09-21T21:21:31.157Z,46.04
2022-09-21T21:24:16.556Z,46.09
2022-09-21T21:27:02.242Z,46.04
2022-09-21T21:29:30.169Z,46.13
2022-09-21T21:31:56.766Z,46.31
2022-09-21T21:34:23.351Z,46.65
2022-09-21T21:36:49.844Z,46.43
2022-09-21T21:39:16.456Z,46.90
2022-09-21T21:41:43.492Z,46.67
2022-09-21T21:44:11.580Z,46.64
2022-09-21T21:46:38.147Z,46.70
2022-09-21T21:49:05.042Z,47.09
2022-09-21T21:51:31.563Z,47.18
2022-09-21T21:53:58.170Z,47.00
2022-09-21T21:56:24.705Z,47.21
2022-09-21T21:58:54.722Z,47.22
2022-09-21T22:01:27.027Z,48.04
2022-09-21T22:03:58.904Z,47.17
2022-09-21T22:06:26.914Z,47.22
2022-09-21T22:08:55.313Z,47.19
2022-09-21T22:11:23.684Z,47.45
2022-09-21T22:13:50.548Z,47.71
2022-09-21T22:16:22.084Z,48.27
2022-09-21T22:18:50.062Z,47.59
2022-09-21T22:21:53.158Z,48.09
2022-09-21T22:24:21.113Z,46.62
2022-09-21T22:26:48.625Z,47.01
2022-09-21T22:29:17.138Z,47.26
2022-09-21T22:31:46.625Z,47.20
2022-09-21T22:34:14.629Z,47.07
2022-09-21T22:36:41.230Z,47.55
2022-09-21T22:39:08.480Z,47.53
2022-09-21T22:41:40.179Z,47.99
2022-09-21T22:44:07.681Z,47.81
2022-09-21T22:46:35.131Z,47.81
2022-09-21T22:49:02.169Z,47.75
2022-09-21T22:51:29.672Z,48.09
2022-09-21T22:53:56.643Z,47.84
2022-09-21T22:56:28.857Z,48.35
2022-09-21T22:58:58.716Z,48.37
2022-09-21T23:01:27.193Z,48.43
2022-09-21T23:03:59.201Z,48.57
2022-09-21T23:06:28.207Z,48.42
2022-09-21T23:08:56.414Z,48.50
2022-09-21T23:11:24.183Z,48.49
2022-09-21T23:13:50.738Z,48.33
2022-09-21T23:16:18.049Z,48.62
2022-09-21T23:18:44.807Z,48.58
2022-09-21T23:21:14.240Z,48.84
2022-09-21T23:23:41.374Z,48.57
2022-09-21T23:26:12.669Z,48.79
2022-09-21T23:28:41.887Z,48.90
2022-09-21T23:31:11.205Z,48.88
2022-09-21T23:33:41.469Z,48.90
2022-09-21T23:36:10.263Z,48.72
2022-09-21T23:38:37.245Z,48.74
2022-09-21T23:41:12.341Z,48.91
2022-09-21T23:43:40.510Z,48.90
2022-09-21T23:46:08.751Z,48.79
2022-09-21T23:48:35.752Z,48.98
2022-09-21T23:51:03.047Z,48.94
2022-09-21T23:53:30.014Z,49.01
2022-09-21T23:55:57.814Z,48.98
2022-09-21T23:58:25.554Z,49.31
